S-y Atmosphere — ZCGY6 — position and weather

sailwx.info

Track history (hours):
 
Tides and Currents Weather Stations Pressure Air Temp Water Temp Dewpoint Dewpoint Depression Visibility Wind Speed Wind Dir Waves Ship Positions

S-y Atmosphere

Last reported at 2015-Aug-28 17:10 UTC. Time now 2015-Aug-29 18:59 UTC.
Position N 43°43' E 007°24'.

Length 53 m; draft 4 m.

Type: Sailing vessel. MMSI: 319726000.

Date/timePositionNaut miles runAvg speedWind from/ knotsBaromVisibWave heightAir tempDewpointWater temp
2015-Aug-28 17:10N 43°43' E 007°24'2 0.1
2015-Aug-27 15:16N 43°43' E 007°21'  
2015-Aug-23 13:33N 43°34' E 007°13'14 9.9
2015-Aug-23 12:08N 43°26' E 006°57'5 9.1
2015-Aug-23 11:33N 43°24' E 006°51'9 8.8
2015-Aug-23 10:33N 43°18' E 006°42'3 2.7
2015-Aug-23 09:33N 43°16' E 006°39'0 0.0
2015-Aug-23 08:26N 43°16' E 006°39'0 0.0
2015-Aug-23 07:33N 43°16' E 006°39'0 0.0
2015-Aug-23 06:33N 43°16' E 006°39'0 0.0
2015-Aug-23 05:30N 43°16' E 006°39'0 0.0
2015-Aug-23 04:27N 43°16' E 006°39'0 0.0
2015-Aug-23 03:33N 43°16' E 006°39'0 0.0
2015-Aug-23 02:33N 43°16' E 006°39'0 0.0
2015-Aug-22 23:25N 43°16' E 006°39'0 0.0
2015-Aug-22 22:31N 43°16' E 006°39'0 0.0
2015-Aug-22 21:24N 43°16' E 006°39'0 0.0
2015-Aug-22 20:26N 43°16' E 006°39'0 0.0
2015-Aug-22 19:33N 43°16' E 006°39'0 0.0
2015-Aug-22 18:26N 43°16' E 006°39'0 0.0
2015-Aug-22 17:33N 43°16' E 006°39'0 0.0
2015-Aug-22 16:33N 43°16' E 006°39'0 0.0
2015-Aug-22 15:29N 43°16' E 006°39'0 0.0
2015-Aug-22 14:22N 43°16' E 006°39'0 0.0
2015-Aug-22 11:20N 43°16' E 006°39'0 0.0
2015-Aug-22 10:30N 43°16' E 006°39'0 0.0
2015-Aug-22 08:31N 43°16' E 006°39'0 0.0
2015-Aug-22 07:33N 43°16' E 006°39'0 0.0
2015-Aug-22 04:24N 43°16' E 006°39'0 0.0
2015-Aug-22 02:29N 43°16' E 006°39'0 0.0
2015-Aug-22 00:33N 43°16' E 006°39'0 0.0
2015-Aug-21 22:18N 43°16' E 006°39'0 0.0
2015-Aug-21 21:23N 43°16' E 006°39'0 0.0
2015-Aug-21 20:33N 43°16' E 006°39'0 0.0
2015-Aug-21 19:12N 43°16' E 006°39'0 0.0
2015-Aug-21 18:28N 43°16' E 006°39'0 0.0
2015-Aug-21 17:33N 43°16' E 006°39'0 0.0
2015-Aug-21 16:33N 43°16' E 006°39'0 0.0
2015-Aug-21 15:33N 43°16' E 006°39'6 6.0
2015-Aug-21 14:33N 43°20' E 006°46'18 0.8
2015-Aug-20 15:08N 43°30' E 007°05'610.9
2015-Aug-20 14:33N 43°34' E 007°12'  
Track history (hours):
 
Tides and Currents Weather Stations Pressure Air Temp Water Temp Dewpoint Dewpoint Depression Visibility Wind Speed Wind Dir Waves Ship Positions

S-y Atmosphere

Last reported at 2015-Aug-28 17:10 UTC. Time now 2015-Aug-29 18:59 UTC.
Position N 43°43' E 007°24'.

Length 53 m; draft 4 m.

Type: Sailing vessel. MMSI: 319726000.

Date/timePositionNaut miles runAvg speedWind from/ knotsBaromVisibWave heightAir tempDewpointWater temp
2015-Aug-28 17:10N 43°43' E 007°24'2 0.1
2015-Aug-27 15:16N 43°43' E 007°21'  
2015-Aug-23 13:33N 43°34' E 007°13'14 9.9
2015-Aug-23 12:08N 43°26' E 006°57'5 9.1
2015-Aug-23 11:33N 43°24' E 006°51'9 8.8
2015-Aug-23 10:33N 43°18' E 006°42'3 2.7
2015-Aug-23 09:33N 43°16' E 006°39'0 0.0
2015-Aug-23 08:26N 43°16' E 006°39'0 0.0
2015-Aug-23 07:33N 43°16' E 006°39'0 0.0
2015-Aug-23 06:33N 43°16' E 006°39'0 0.0
2015-Aug-23 05:30N 43°16' E 006°39'0 0.0
2015-Aug-23 04:27N 43°16' E 006°39'0 0.0
2015-Aug-23 03:33N 43°16' E 006°39'0 0.0
2015-Aug-23 02:33N 43°16' E 006°39'0 0.0
2015-Aug-22 23:25N 43°16' E 006°39'0 0.0
2015-Aug-22 22:31N 43°16' E 006°39'0 0.0
2015-Aug-22 21:24N 43°16' E 006°39'0 0.0
2015-Aug-22 20:26N 43°16' E 006°39'0 0.0
2015-Aug-22 19:33N 43°16' E 006°39'0 0.0
2015-Aug-22 18:26N 43°16' E 006°39'0 0.0
2015-Aug-22 17:33N 43°16' E 006°39'0 0.0
2015-Aug-22 16:33N 43°16' E 006°39'0 0.0
2015-Aug-22 15:29N 43°16' E 006°39'0 0.0
2015-Aug-22 14:22N 43°16' E 006°39'0 0.0
2015-Aug-22 11:20N 43°16' E 006°39'0 0.0
2015-Aug-22 10:30N 43°16' E 006°39'0 0.0
2015-Aug-22 08:31N 43°16' E 006°39'0 0.0
2015-Aug-22 07:33N 43°16' E 006°39'0 0.0
2015-Aug-22 04:24N 43°16' E 006°39'0 0.0
2015-Aug-22 02:29N 43°16' E 006°39'0 0.0
2015-Aug-22 00:33N 43°16' E 006°39'0 0.0
2015-Aug-21 22:18N 43°16' E 006°39'0 0.0
2015-Aug-21 21:23N 43°16' E 006°39'0 0.0
2015-Aug-21 20:33N 43°16' E 006°39'0 0.0
2015-Aug-21 19:12N 43°16' E 006°39'0 0.0
2015-Aug-21 18:28N 43°16' E 006°39'0 0.0
2015-Aug-21 17:33N 43°16' E 006°39'0 0.0
2015-Aug-21 16:33N 43°16' E 006°39'0 0.0
2015-Aug-21 15:33N 43°16' E 006°39'6 6.0
2015-Aug-21 14:33N 43°20' E 006°46'18 0.8
2015-Aug-20 15:08N 43°30' E 007°05'610.9
2015-Aug-20 14:33N 43°34' E 007°12'  

Dump ship's entire track history